Arnold, Illinois
Current Conditions -  °F | °C
As of 6:35 PM on Friday 24 Oct 2014 (Local Time) from KIJX Reporting Station
Clear Clear  
Wind Chill: 66°   Ceiling: Unl
Heat Index: 66°   Visibility: 10mi
Dew Point: 50°   Wind: 6mph
Humidity: 57%   Direction: 170°S
Pressure: 29.97"   Gusts: NA
Location:  39.7413°N, 90.2138°W
Report Text: KIJX 242335Z AUTO 17005KT 10SM CLR 19/10 A2997 RMK AO2 T01870100
Loading
Personal Weather Stations






























Interactive Weather Map
Tropical Storm Tracking
New forecast layout! Learn more

10-Day Weather Forecast

Advertisements
Track Severe Weather on mobile